createdAt,value
2022-11-06T00:02:20.313Z,101198.16
2022-11-06T00:04:47.252Z,101193.81
2022-11-06T00:07:13.643Z,101180.53
2022-11-06T00:09:40.100Z,101188.09
2022-11-06T00:12:06.633Z,101194.47
2022-11-06T00:14:32.989Z,101192.47
2022-11-06T00:16:59.404Z,101183.28
2022-11-06T00:19:25.862Z,101186.16
2022-11-06T00:21:52.203Z,101178.91
2022-11-06T00:24:18.539Z,101185.91
2022-11-06T00:26:47.649Z,101185.44
2022-11-06T00:29:17.724Z,101190.38
2022-11-06T00:31:44.116Z,101186.56
2022-11-06T00:34:10.954Z,101178.78
2022-11-06T00:36:37.363Z,101188.22
2022-11-06T00:39:03.802Z,101175.59
2022-11-06T00:41:30.204Z,101169.19
2022-11-06T00:43:58.288Z,101174.00
2022-11-06T00:46:25.034Z,101168.09
2022-11-06T00:48:52.297Z,101164.28
2022-11-06T00:51:20.131Z,101169.88
2022-11-06T00:53:46.557Z,101169.47
2022-11-06T00:56:12.922Z,101171.25
2022-11-06T00:58:39.951Z,101171.13
2022-11-06T01:01:16.959Z,101169.47
2022-11-06T01:03:44.439Z,101163.19
2022-11-06T01:06:12.107Z,101164.16
2022-11-06T01:08:38.974Z,101173.41
2022-11-06T01:11:09.934Z,101167.69
2022-11-06T01:13:36.493Z,101162.63
2022-11-06T01:16:04.780Z,101157.84
2022-11-06T01:18:31.268Z,101158.00
2022-11-06T01:20:57.620Z,101159.22
2022-11-06T01:23:23.975Z,101159.38
2022-11-06T01:25:57.631Z,101164.41
2022-11-06T01:28:24.165Z,101169.75
2022-11-06T01:30:50.534Z,101163.47
2022-11-06T01:33:16.943Z,101163.84
2022-11-06T01:35:47.448Z,101158.81
2022-11-06T01:38:14.220Z,101154.44
2022-11-06T01:40:45.005Z,101152.66
2022-11-06T01:43:14.051Z,101149.09
2022-11-06T01:45:42.631Z,101155.00
2022-11-06T01:48:09.700Z,101147.06
2022-11-06T01:50:36.699Z,101141.72
2022-11-06T01:53:03.342Z,101129.41
2022-11-06T01:55:32.251Z,101128.31
2022-11-06T01:58:00.276Z,101132.28
2022-11-06T02:00:27.579Z,101126.28
2022-11-06T02:02:54.093Z,101134.56
2022-11-06T02:05:20.719Z,101131.59
2022-11-06T02:07:47.962Z,101126.66
2022-11-06T02:10:14.374Z,101126.38
2022-11-06T02:12:40.711Z,101126.09
2022-11-06T02:15:10.726Z,101128.13
2022-11-06T02:17:52.386Z,101130.50
2022-11-06T02:20:27.678Z,101131.84
2022-11-06T02:23:03.034Z,101116.28
2022-11-06T02:25:41.660Z,101115.81
2022-11-06T02:28:28.259Z,101121.19
2022-11-06T02:30:57.983Z,101128.25
2022-11-06T02:33:28.822Z,101129.16
2022-11-06T02:36:13.280Z,101117.38
2022-11-06T02:38:48.712Z,101107.25
2022-11-06T02:41:27.481Z,101103.03
2022-11-06T02:43:55.434Z,101103.69
2022-11-06T02:46:24.653Z,101103.69
2022-11-06T02:48:52.859Z,101101.13
2022-11-06T02:51:22.123Z,101096.88
2022-11-06T02:53:48.704Z,101099.31
2022-11-06T02:56:17.482Z,101086.63
2022-11-06T02:58:49.209Z,101086.06
2022-11-06T03:01:19.668Z,101094.56
2022-11-06T03:03:50.691Z,101092.22
2022-11-06T03:06:46.610Z,101087.00
2022-11-06T03:09:15.427Z,101077.44
2022-11-06T03:11:41.908Z,101070.31
2022-11-06T03:14:14.575Z,101079.78
2022-11-06T03:16:52.400Z,101069.78
2022-11-06T03:19:32.178Z,101076.75
2022-11-06T03:22:07.613Z,101074.28
2022-11-06T03:24:39.177Z,101057.38
2022-11-06T03:27:13.791Z,101072.28
2022-11-06T03:29:48.378Z,101078.72
2022-11-06T03:32:17.817Z,101077.47
2022-11-06T03:34:51.448Z,101082.09
2022-11-06T03:37:22.482Z,101094.97
2022-11-06T03:39:51.974Z,101090.19
2022-11-06T03:42:21.631Z,101091.69
2022-11-06T03:44:51.312Z,101094.81
2022-11-06T03:47:24.625Z,101096.06
2022-11-06T03:49:53.853Z,101091.00
2022-11-06T03:52:33.777Z,101098.34
2022-11-06T03:55:06.070Z,101096.75
2022-11-06T03:57:39.562Z,101095.09
2022-11-06T04:00:07.879Z,101090.03
2022-11-06T04:02:39.819Z,101083.47
2022-11-06T04:05:13.192Z,101082.53
2022-11-06T04:08:03.863Z,101077.72
2022-11-06T04:10:49.734Z,101081.66
2022-11-06T04:13:36.204Z,101067.59
2022-11-06T04:16:02.984Z,101070.09
2022-11-06T04:18:29.388Z,101063.94
2022-11-06T04:21:21.928Z,101069.66
2022-11-06T04:24:25.854Z,101067.56
2022-11-06T04:27:10.770Z,101054.06
2022-11-06T04:30:06.734Z,101057.34
2022-11-06T04:32:33.262Z,101050.25
2022-11-06T04:35:10.428Z,101045.06
2022-11-06T04:37:43.246Z,101043.94
2022-11-06T04:40:10.265Z,101042.75
2022-11-06T04:42:55.413Z,101047.38
2022-11-06T04:45:25.509Z,101043.81
2022-11-06T04:47:52.860Z,101033.03
2022-11-06T04:50:20.755Z,101029.47
2022-11-06T04:52:48.050Z,101025.53
2022-11-06T04:55:14.532Z,101015.66
2022-11-06T04:57:40.978Z,101015.53
2022-11-06T05:00:07.843Z,101010.06
2022-11-06T05:02:34.269Z,101005.56
2022-11-06T05:05:00.716Z,100992.56
2022-11-06T05:07:27.093Z,100986.69
2022-11-06T05:09:53.553Z,100997.09
2022-11-06T05:12:19.989Z,100988.34
2022-11-06T05:14:46.515Z,100987.13
2022-11-06T05:17:13.005Z,100976.34
2022-11-06T05:19:39.444Z,100972.09
2022-11-06T05:22:24.613Z,100977.97
2022-11-06T05:24:51.058Z,100970.72
2022-11-06T05:27:17.518Z,100971.41
2022-11-06T05:29:44.512Z,100970.31
2022-11-06T05:32:10.979Z,100960.91
2022-11-06T05:34:37.370Z,100963.78
2022-11-06T05:37:03.787Z,100956.81
2022-11-06T05:39:30.198Z,100951.88
2022-11-06T05:41:56.603Z,100963.25
2022-11-06T05:44:23.014Z,100957.75
2022-11-06T05:46:50.220Z,100958.28
2022-11-06T05:49:17.701Z,100965.25
2022-11-06T05:51:44.330Z,100953.78
2022-11-06T05:54:10.744Z,100949.03
2022-11-06T05:56:37.176Z,100944.78
2022-11-06T05:59:03.586Z,100942.03
2022-11-06T06:01:30.427Z,100939.06
2022-11-06T06:03:57.039Z,100940.00
2022-11-06T06:06:23.486Z,100936.59
2022-11-06T06:08:49.886Z,100933.31
2022-11-06T06:11:16.250Z,100934.66
2022-11-06T06:13:42.650Z,100928.25
2022-11-06T06:16:09.040Z,100926.22
2022-11-06T06:18:35.414Z,100919.47
2022-11-06T06:21:01.854Z,100918.25
2022-11-06T06:23:28.249Z,100907.09
2022-11-06T06:25:56.342Z,100907.66
2022-11-06T06:28:22.804Z,100911.31
2022-11-06T06:30:49.232Z,100907.50
2022-11-06T06:33:15.700Z,100907.19
2022-11-06T06:35:42.086Z,100910.50
2022-11-06T06:38:08.472Z,100915.81
2022-11-06T06:40:34.856Z,100922.22
2022-11-06T06:43:01.247Z,100917.44
2022-11-06T06:45:27.632Z,100925.66
2022-11-06T06:47:54.070Z,100928.53
2022-11-06T06:50:20.707Z,100935.75
2022-11-06T06:52:47.548Z,100936.41
2022-11-06T06:55:14.197Z,100946.84
2022-11-06T06:57:40.685Z,100933.72
2022-11-06T07:00:07.475Z,100936.97
2022-11-06T07:02:33.994Z,100933.44
2022-11-06T07:05:00.433Z,100938.50
2022-11-06T07:07:26.840Z,100941.22
2022-11-06T07:09:53.293Z,100935.50
2022-11-06T07:12:19.650Z,100940.28
2022-11-06T07:14:46.227Z,100929.63
2022-11-06T07:17:12.623Z,100933.81
2022-11-06T07:19:39.095Z,100934.53
2022-11-06T07:22:05.522Z,100938.34
2022-11-06T07:24:31.976Z,100937.41
2022-11-06T07:26:58.333Z,100945.31
2022-11-06T07:29:24.691Z,100940.25
2022-11-06T07:31:51.075Z,100945.72
2022-11-06T07:34:17.487Z,100933.16
2022-11-06T07:36:43.926Z,100939.16
2022-11-06T07:39:10.349Z,100938.19
2022-11-06T07:41:37.634Z,100936.16
2022-11-06T07:44:05.015Z,100938.88
2022-11-06T07:46:31.719Z,100942.00
2022-11-06T07:48:58.116Z,100942.78
2022-11-06T07:51:24.469Z,100940.28
2022-11-06T07:53:50.863Z,100936.88
2022-11-06T07:56:17.269Z,100927.28
2022-11-06T07:58:43.628Z,100926.97
2022-11-06T08:01:18.277Z,100932.72
2022-11-06T08:03:45.189Z,100924.03
2022-11-06T08:06:11.982Z,100917.44
2022-11-06T08:08:38.474Z,100919.16
2022-11-06T08:11:05.821Z,100925.59
2022-11-06T08:13:34.008Z,100926.72
2022-11-06T08:16:04.746Z,100925.34
2022-11-06T08:18:31.217Z,100921.13
2022-11-06T08:20:57.675Z,100923.69
2022-11-06T08:23:24.116Z,100929.63
2022-11-06T08:25:53.473Z,100923.59
2022-11-06T08:28:19.872Z,100921.88
2022-11-06T08:30:46.251Z,100926.66
2022-11-06T08:33:12.647Z,100916.03
2022-11-06T08:35:39.054Z,100909.94
2022-11-06T08:38:05.452Z,100904.97
2022-11-06T08:40:32.043Z,100903.56
2022-11-06T08:42:59.848Z,100902.75
2022-11-06T08:45:26.215Z,100890.09
2022-11-06T08:47:52.599Z,100893.84
2022-11-06T08:50:18.990Z,100888.63
2022-11-06T08:52:45.355Z,100888.16
2022-11-06T08:55:11.806Z,100882.53
2022-11-06T08:57:38.178Z,100881.91
2022-11-06T09:00:04.976Z,100876.63
2022-11-06T09:02:31.986Z,100878.47
2022-11-06T09:04:58.513Z,100874.38
2022-11-06T09:07:24.999Z,100863.19
2022-11-06T09:09:51.367Z,100862.34
2022-11-06T09:12:17.775Z,100861.75
2022-11-06T09:14:44.149Z,100857.97
2022-11-06T09:17:10.530Z,100856.72
2022-11-06T09:19:36.942Z,100854.09
2022-11-06T09:22:03.332Z,100854.44
2022-11-06T09:24:49.976Z,100849.06
2022-11-06T09:27:16.097Z,100836.25
2022-11-06T09:29:44.209Z,100835.66
2022-11-06T09:32:10.904Z,100828.84
2022-11-06T09:34:37.293Z,100822.16
2022-11-06T09:37:03.654Z,100824.59
2022-11-06T09:39:30.012Z,100820.03
2022-11-06T09:42:01.583Z,100814.50
2022-11-06T09:44:37.112Z,100826.25
2022-11-06T09:47:06.435Z,100822.47
2022-11-06T09:49:32.851Z,100809.09
2022-11-06T09:52:05.078Z,100809.59
2022-11-06T09:54:37.793Z,100803.06
2022-11-06T09:57:09.519Z,100801.91
2022-11-06T09:59:36.926Z,100817.44
2022-11-06T10:02:09.850Z,100804.28
2022-11-06T10:04:41.215Z,100797.91
2022-11-06T10:07:17.794Z,100800.03
2022-11-06T10:09:44.161Z,100789.59
2022-11-06T10:12:16.669Z,100793.38
2022-11-06T10:14:56.251Z,100793.72
2022-11-06T10:17:31.188Z,100773.19
2022-11-06T10:20:06.875Z,100773.47
2022-11-06T10:22:33.261Z,100768.28
2022-11-06T10:25:19.768Z,100759.13
2022-11-06T10:28:06.435Z,100779.03
2022-11-06T10:30:45.075Z,100776.09
2022-11-06T10:33:31.752Z,100776.75
2022-11-06T10:36:02.369Z,100758.78
2022-11-06T10:38:33.416Z,100766.63
2022-11-06T10:41:00.583Z,100754.41
2022-11-06T10:43:31.119Z,100739.91
2022-11-06T10:46:17.070Z,100746.41
2022-11-06T10:48:48.596Z,100737.75
2022-11-06T10:51:33.593Z,100734.66
2022-11-06T10:54:18.868Z,100734.19
2022-11-06T10:57:04.160Z,100723.91
2022-11-06T10:59:30.992Z,100723.25
2022-11-06T11:01:57.541Z,100720.00
2022-11-06T11:04:23.984Z,100724.56
2022-11-06T11:06:50.353Z,100714.75
2022-11-06T11:09:25.827Z,100705.13
2022-11-06T11:11:52.274Z,100703.50
2022-11-06T11:14:22.989Z,100696.81
2022-11-06T11:16:49.602Z,100684.09
2022-11-06T11:19:15.932Z,100691.59
2022-11-06T11:21:58.966Z,100686.56
2022-11-06T11:24:26.013Z,100691.13
2022-11-06T11:26:56.801Z,100689.66
2022-11-06T11:29:25.185Z,100680.84
2022-11-06T11:31:53.155Z,100677.63
2022-11-06T11:34:24.737Z,100674.81
2022-11-06T11:36:53.069Z,100674.66
2022-11-06T11:39:21.743Z,100674.28
2022-11-06T11:41:48.119Z,100664.50
2022-11-06T11:44:16.454Z,100658.94
2022-11-06T11:46:47.174Z,100653.03
2022-11-06T11:49:26.269Z,100636.03
2022-11-06T11:51:53.322Z,100632.28
2022-11-06T11:54:26.107Z,100609.28
2022-11-06T11:57:04.624Z,100617.44
2022-11-06T11:59:44.223Z,100606.16
2022-11-06T12:02:26.329Z,100599.47
2022-11-06T12:04:55.858Z,100594.06
2022-11-06T12:07:25.636Z,100579.00
2022-11-06T12:09:52.284Z,100574.22
2022-11-06T12:12:23.132Z,100566.25
2022-11-06T12:15:03.855Z,100563.94
2022-11-06T12:17:30.953Z,100570.75
2022-11-06T12:19:59.149Z,100561.66
2022-11-06T12:22:28.591Z,100571.47
2022-11-06T12:24:59.592Z,100566.06
2022-11-06T12:27:32.171Z,100558.22
2022-11-06T12:30:10.044Z,100557.44
2022-11-06T12:32:54.086Z,100561.31
2022-11-06T12:35:24.064Z,100564.81
2022-11-06T12:38:02.667Z,100536.91
2022-11-06T12:40:30.589Z,100537.84
2022-11-06T12:43:16.093Z,100533.63
2022-11-06T12:45:45.424Z,100533.13
2022-11-06T12:48:30.223Z,100518.28
2022-11-06T12:51:21.820Z,100526.22
2022-11-06T12:53:48.277Z,100527.09
2022-11-06T12:56:19.841Z,100525.78
2022-11-06T12:58:51.877Z,100512.50
2022-11-06T13:01:27.596Z,100523.03
2022-11-06T13:04:12.300Z,100505.59
2022-11-06T13:07:00.100Z,100511.75
2022-11-06T13:09:31.513Z,100500.66
2022-11-06T13:12:05.869Z,100495.91
2022-11-06T13:14:36.856Z,100510.38
2022-11-06T13:17:06.284Z,100495.75
2022-11-06T13:19:51.107Z,100484.19
2022-11-06T13:22:31.737Z,100500.34
2022-11-06T13:24:58.106Z,100496.44
2022-11-06T13:27:33.481Z,100499.16
2022-11-06T13:30:03.886Z,100500.03
2022-11-06T13:32:32.820Z,100515.00
2022-11-06T13:34:59.776Z,100502.13
2022-11-06T13:37:39.714Z,100502.75
2022-11-06T13:40:24.686Z,100506.81
2022-11-06T13:43:00.822Z,100503.06
2022-11-06T13:45:28.199Z,100497.22
2022-11-06T13:48:01.268Z,100484.31
2022-11-06T13:50:32.743Z,100484.50
2022-11-06T13:53:02.184Z,100484.66
2022-11-06T13:55:41.831Z,100474.22
2022-11-06T13:58:08.247Z,100489.22
2022-11-06T14:00:37.506Z,100480.88
2022-11-06T14:03:10.049Z,100476.03
2022-11-06T14:05:42.506Z,100469.44
2022-11-06T14:08:14.107Z,100465.91
2022-11-06T14:10:47.116Z,100466.19
2022-11-06T14:13:15.315Z,100470.09
2022-11-06T14:15:42.582Z,100473.56
2022-11-06T14:18:14.446Z,100476.53
2022-11-06T14:20:40.943Z,100475.63
2022-11-06T14:23:25.821Z,100463.81
2022-11-06T14:26:08.895Z,100460.41
2022-11-06T14:28:36.930Z,100471.19
2022-11-06T14:31:12.441Z,100469.75
2022-11-06T14:33:49.150Z,100463.88
2022-11-06T14:36:24.647Z,100467.78
2022-11-06T14:38:51.566Z,100470.84
2022-11-06T14:41:36.258Z,100467.97
2022-11-06T14:44:07.485Z,100462.47
2022-11-06T14:46:34.004Z,100459.22
2022-11-06T14:49:19.227Z,100464.50
2022-11-06T14:51:56.785Z,100469.84
2022-11-06T14:54:24.522Z,100460.13
2022-11-06T14:56:54.295Z,100459.44
2022-11-06T14:59:20.743Z,100445.94
2022-11-06T15:02:00.748Z,100461.28
2022-11-06T15:04:31.478Z,100457.00
2022-11-06T15:07:06.334Z,100454.41
2022-11-06T15:09:38.588Z,100458.19
2022-11-06T15:12:08.559Z,100460.00
2022-11-06T15:14:34.901Z,100464.63
2022-11-06T15:17:12.132Z,100463.53
2022-11-06T15:19:41.023Z,100480.94
2022-11-06T15:22:07.365Z,100473.63
2022-11-06T15:24:42.901Z,100478.50
2022-11-06T15:27:15.158Z,100483.63
2022-11-06T15:29:42.709Z,100480.69
2022-11-06T15:32:16.905Z,100474.47
2022-11-06T15:34:45.762Z,100480.94
2022-11-06T15:37:16.601Z,100482.72
2022-11-06T15:39:59.229Z,100483.22
2022-11-06T15:42:45.499Z,100483.78
2022-11-06T15:45:15.931Z,100484.34
2022-11-06T15:47:57.719Z,100479.25
2022-11-06T15:50:26.025Z,100467.34
2022-11-06T15:52:52.837Z,100473.25
2022-11-06T15:55:30.072Z,100473.22
2022-11-06T15:58:07.743Z,100460.66
2022-11-06T16:00:36.767Z,100450.53
2022-11-06T16:03:05.272Z,100430.00
2022-11-06T16:05:34.285Z,100374.66
2022-11-06T16:08:01.079Z,100332.00
2022-11-06T16:10:27.783Z,100340.75
2022-11-06T16:12:54.954Z,100367.06
2022-11-06T16:15:51.157Z,100353.66
2022-11-06T16:18:17.558Z,100300.59
2022-11-06T16:20:45.620Z,100348.41
2022-11-06T16:23:14.110Z,100354.66
2022-11-06T16:25:40.767Z,100350.72
2022-11-06T16:28:21.838Z,100347.63
2022-11-06T16:30:48.769Z,100344.88
2022-11-06T16:33:22.741Z,100352.50
2022-11-06T16:35:55.344Z,100336.19
2022-11-06T16:38:48.267Z,100336.28
2022-11-06T16:41:34.482Z,100329.28
2022-11-06T16:44:19.900Z,100351.22
2022-11-06T16:47:04.602Z,100343.06
2022-11-06T16:49:32.878Z,100342.47
2022-11-06T16:51:59.588Z,100341.63
2022-11-06T16:54:31.114Z,100346.38
2022-11-06T16:57:11.233Z,100348.97
2022-11-06T16:59:37.644Z,100338.84
2022-11-06T17:02:04.840Z,100344.88
2022-11-06T17:04:31.363Z,100343.72
2022-11-06T17:06:58.494Z,100335.41
2022-11-06T17:09:30.869Z,100331.22
2022-11-06T17:11:58.145Z,100338.22
2022-11-06T17:14:25.134Z,100329.72
2022-11-06T17:16:57.643Z,100322.91
2022-11-06T17:19:25.748Z,100319.19
2022-11-06T17:21:52.494Z,100317.09
2022-11-06T17:27:06.118Z,100311.56
2022-11-06T17:29:33.501Z,100308.81
2022-11-06T17:31:59.897Z,100306.88
2022-11-06T17:34:26.260Z,100304.53
2022-11-06T17:36:52.702Z,100301.47
2022-11-06T17:39:19.415Z,100277.72
2022-11-06T17:41:45.781Z,100274.16
2022-11-06T17:44:13.020Z,100272.38
2022-11-06T17:46:43.817Z,100251.91
2022-11-06T17:49:16.873Z,100233.19
2022-11-06T17:52:22.575Z,100242.63
2022-11-06T17:54:49.701Z,100248.28
2022-11-06T17:57:22.775Z,100255.97
2022-11-06T17:59:50.359Z,100257.09
2022-11-06T18:02:30.070Z,100262.31
2022-11-06T18:05:04.069Z,100250.69
2022-11-06T18:07:31.000Z,100255.56
2022-11-06T18:09:57.481Z,100265.56
2022-11-06T18:12:27.356Z,100275.66
2022-11-06T18:14:53.789Z,100286.03
2022-11-06T18:17:20.180Z,100291.25
2022-11-06T18:19:46.539Z,100291.56
2022-11-06T18:22:12.919Z,100278.84
2022-11-06T18:24:39.924Z,100272.56
2022-11-06T18:27:06.294Z,100269.13
2022-11-06T18:29:32.700Z,100278.25
2022-11-06T18:31:59.217Z,100277.09
2022-11-06T18:34:25.601Z,100265.38
2022-11-06T18:36:52.006Z,100278.53
2022-11-06T18:39:18.640Z,100280.72
2022-11-06T18:41:45.185Z,100281.31
2022-11-06T18:44:11.534Z,100278.72
2022-11-06T18:46:37.896Z,100286.06
2022-11-06T18:49:04.293Z,100280.84
2022-11-06T18:51:35.518Z,100281.16
2022-11-06T18:54:04.442Z,100280.03
2022-11-06T18:56:31.042Z,100274.28
2022-11-06T18:58:57.393Z,100285.69
2022-11-06T19:01:23.959Z,100282.44
2022-11-06T19:03:50.463Z,100283.91
2022-11-06T19:06:18.331Z,100301.63
2022-11-06T19:08:45.342Z,100294.19
2022-11-06T19:11:13.832Z,100298.72
2022-11-06T19:13:46.255Z,100303.44
2022-11-06T19:16:14.275Z,100308.47
2022-11-06T19:18:41.313Z,100302.13
2022-11-06T19:21:09.837Z,100303.75
2022-11-06T19:23:37.176Z,100302.94
2022-11-06T19:26:30.011Z,100296.75
2022-11-06T19:28:58.054Z,100308.47
2022-11-06T19:31:28.688Z,100308.13
2022-11-06T19:33:55.884Z,100307.69
2022-11-06T19:36:22.364Z,100303.44
2022-11-06T19:38:48.761Z,100303.75
2022-11-06T19:41:15.118Z,100308.31
2022-11-06T19:43:41.779Z,100308.31
2022-11-06T19:46:08.275Z,100308.63
2022-11-06T19:48:34.924Z,100308.00
2022-11-06T19:51:01.511Z,100310.41
2022-11-06T19:53:27.947Z,100320.34
2022-11-06T19:55:54.422Z,100316.75
2022-11-06T19:58:20.860Z,100320.69
2022-11-06T20:00:50.236Z,100312.19
2022-11-06T20:03:17.057Z,100316.59
2022-11-06T20:05:43.608Z,100324.38
2022-11-06T20:08:10.240Z,100318.41
2022-11-06T20:10:37.093Z,100334.81
2022-11-06T20:13:03.514Z,100336.59
2022-11-06T20:15:30.406Z,100347.53
2022-11-06T20:17:56.934Z,100344.41
2022-11-06T20:20:23.350Z,100348.13
2022-11-06T20:22:49.750Z,100352.88
2022-11-06T20:25:16.299Z,100345.88
2022-11-06T20:27:42.668Z,100353.66
2022-11-06T20:30:09.460Z,100363.09
2022-11-06T20:32:36.088Z,100362.75
2022-11-06T20:35:03.613Z,100357.25
2022-11-06T20:37:30.060Z,100362.09
2022-11-06T20:39:56.420Z,100359.34
2022-11-06T20:42:23.101Z,100361.16
2022-11-06T20:44:49.562Z,100369.09
2022-11-06T20:47:16.077Z,100367.63
2022-11-06T20:49:42.954Z,100378.22
2022-11-06T20:52:14.355Z,100372.03
2022-11-06T20:54:46.886Z,100374.00
2022-11-06T20:57:14.688Z,100376.44
2022-11-06T20:59:41.057Z,100382.78
2022-11-06T21:02:07.722Z,100380.69
2022-11-06T21:04:34.473Z,100385.38
2022-11-06T21:07:00.863Z,100381.31
2022-11-06T21:09:27.226Z,100394.66
2022-11-06T21:11:53.605Z,100396.28
2022-11-06T21:14:21.787Z,100391.75
2022-11-06T21:16:48.135Z,100396.94
2022-11-06T21:19:14.564Z,100403.13
2022-11-06T21:21:41.068Z,100403.59
2022-11-06T21:24:07.653Z,100408.31
2022-11-06T21:26:35.522Z,100406.03
2022-11-06T21:29:06.480Z,100407.66
2022-11-06T21:31:33.165Z,100423.97
2022-11-06T21:34:00.380Z,100419.38
2022-11-06T21:36:28.233Z,100426.03
2022-11-06T21:38:56.494Z,100433.03
2022-11-06T21:41:24.248Z,100426.72
2022-11-06T21:43:50.737Z,100424.25
2022-11-06T21:46:17.934Z,100427.66
2022-11-06T21:48:46.819Z,100429.97
2022-11-06T21:51:21.137Z,100436.00
2022-11-06T21:54:06.737Z,100429.16
2022-11-06T21:56:33.299Z,100423.78
2022-11-06T21:59:00.408Z,100432.88
2022-11-06T22:01:27.871Z,100430.94
2022-11-06T22:03:54.676Z,100438.13
2022-11-06T22:06:23.338Z,100435.34
2022-11-06T22:08:50.467Z,100447.06
2022-11-06T22:11:18.434Z,100441.88
2022-11-06T22:13:45.412Z,100434.66
2022-11-06T22:16:12.955Z,100434.84
2022-11-06T22:18:39.537Z,100435.97
2022-11-06T22:21:11.326Z,100439.22
2022-11-06T22:23:38.257Z,100439.56
2022-11-06T22:26:08.942Z,100446.22
2022-11-06T22:28:35.717Z,100435.31
2022-11-06T22:31:02.435Z,100440.53
2022-11-06T22:33:29.525Z,100436.00
2022-11-06T22:36:06.219Z,100438.44
2022-11-06T22:38:33.067Z,100447.22
2022-11-06T22:41:00.234Z,100447.22
2022-11-06T22:43:27.598Z,100445.94
2022-11-06T22:45:58.956Z,100456.22
2022-11-06T22:48:25.376Z,100455.53
2022-11-06T22:50:51.773Z,100461.72
2022-11-06T22:53:18.390Z,100464.78
2022-11-06T22:55:45.057Z,100458.16
2022-11-06T22:58:11.438Z,100462.38
2022-11-06T23:00:37.821Z,100470.84
2022-11-06T23:03:04.281Z,100473.13
2022-11-06T23:05:30.782Z,100467.25
2022-11-06T23:07:57.159Z,100476.84
2022-11-06T23:10:29.595Z,100474.25
2022-11-06T23:12:57.219Z,100457.78
2022-11-06T23:15:24.137Z,100473.22
2022-11-06T23:17:51.186Z,100488.41
2022-11-06T23:20:17.605Z,100476.34
2022-11-06T23:22:44.032Z,100481.06
2022-11-06T23:25:11.826Z,100478.16
2022-11-06T23:27:38.319Z,100484.66
2022-11-06T23:30:05.370Z,100485.16
2022-11-06T23:32:32.574Z,100481.06
2022-11-06T23:34:59.210Z,100488.25
2022-11-06T23:37:25.597Z,100483.03
2022-11-06T23:39:52.222Z,100481.25
2022-11-06T23:42:19.710Z,100480.44
2022-11-06T23:45:04.839Z,100488.72
2022-11-06T23:47:31.212Z,100486.09
2022-11-06T23:49:58.468Z,100491.31
2022-11-06T23:52:25.110Z,100493.59
2022-11-06T23:54:51.500Z,100492.00
2022-11-06T23:57:17.879Z,100495.22
2022-11-06T23:59:44.323Z,100491.81
